Time;durP1;ratioP1;P1;durP2;ratioP2;P2;SDS_P1;SDS_P2;PMS_P1;PMS_P2;Temp;Humidity;BMP_temperature;BMP_pressure;BME280_temperature;BME280_humidity;BME280_pressure;Samples;Min_cycle;Max_cycle;Signal;HPM_P1;HPM_P2
2021/07/22 00:01:28;;;;;;;12.50;11.20;;;19.10;99.90;;;;;;4915403;29;20636;-68
2021/07/22 00:03:54;;;;;;;11.57;10.47;;;19.10;99.90;;;;;;4915306;29;20206;-68
2021/07/22 00:06:20;;;;;;;12.77;11.57;;;19.10;99.90;;;;;;4915440;29;20189;-71
2021/07/22 00:08:45;;;;;;;12.60;11.33;;;19.00;99.90;;;;;;4914809;29;20470;-68
2021/07/22 00:11:11;;;;;;;11.70;10.53;;;19.10;99.90;;;;;;4915758;29;20296;-68
2021/07/22 00:13:37;;;;;;;11.87;10.70;;;19.00;99.90;;;;;;4898147;29;20189;-75
2021/07/22 00:16:03;;;;;;;13.90;11.80;;;19.00;99.90;;;;;;4915315;29;20604;-68
2021/07/22 00:18:32;;;;;;;12.90;10.57;;;19.00;99.90;;;;;;4914749;29;20189;-68
2021/07/22 00:20:58;;;;;;;12.03;10.83;;;19.00;99.90;;;;;;4914864;29;20494;-69
2021/07/22 00:23:23;;;;;;;12.37;11.17;;;19.00;99.90;;;;;;4915921;29;20513;-69
2021/07/22 00:25:49;;;;;;;12.63;11.40;;;18.90;99.90;;;;;;4914885;29;20182;-69
2021/07/22 00:28:15;;;;;;;11.63;10.43;;;18.90;99.90;;;;;;4915220;29;20182;-69
2021/07/22 00:30:40;;;;;;;12.77;11.57;;;18.90;99.90;;;;;;4914516;29;20183;-75
2021/07/22 00:33:06;;;;;;;11.90;10.80;;;18.90;99.90;;;;;;4915108;29;20306;-69
2021/07/22 00:35:32;;;;;;;12.07;10.87;;;18.90;99.90;;;;;;4916502;29;20246;-69
2021/07/22 00:37:58;;;;;;;11.23;10.13;;;18.90;99.90;;;;;;4917932;29;20257;-69
2021/07/22 00:40:23;;;;;;;11.10;10.00;;;18.90;99.90;;;;;;4919098;29;20593;-69
2021/07/22 00:42:59;;;;;;;12.27;11.17;;;18.90;99.90;;;;;;4918214;29;20261;-68
2021/07/22 00:45:25;;;;;;;12.00;10.30;;;18.90;99.90;;;;;;4918834;29;20209;-69
2021/07/22 00:47:51;;;;;;;11.80;10.67;;;18.90;99.90;;;;;;4917745;29;20780;-69
2021/07/22 00:50:17;;;;;;;11.03;10.03;;;18.80;99.90;;;;;;4918539;29;20458;-68
2021/07/22 00:52:42;;;;;;;11.80;10.60;;;18.80;99.90;;;;;;4917683;29;20974;-71
2021/07/22 00:55:08;;;;;;;15.50;11.40;;;18.80;99.90;;;;;;4918713;29;20190;-69
2021/07/22 00:57:34;;;;;;;11.63;10.10;;;18.80;99.90;;;;;;4918291;29;20182;-69
2021/07/22 00:59:59;;;;;;;10.27;9.10;;;18.80;99.90;;;;;;4917751;29;20695;-68
2021/07/22 01:02:25;;;;;;;11.13;10.13;;;18.70;99.90;;;;;;4918301;29;20187;-69
2021/07/22 01:04:51;;;;;;;11.00;10.00;;;18.70;99.90;;;;;;4917761;29;20544;-69
2021/07/22 01:07:16;;;;;;;11.67;10.47;;;18.70;99.90;;;;;;4918224;29;20270;-69
2021/07/22 01:09:42;;;;;;;11.33;10.23;;;18.70;99.90;;;;;;4917714;29;20272;-74
2021/07/22 01:12:08;;;;;;;10.93;9.87;;;18.70;99.90;;;;;;4918039;29;20183;-68
2021/07/22 01:14:33;;;;;;;12.10;10.80;;;18.70;99.90;;;;;;4901066;29;20639;-69
2021/07/22 01:17:01;;;;;;;11.67;10.47;;;18.60;99.90;;;;;;4900289;29;20222;-69
2021/07/22 01:19:26;;;;;;;10.70;9.60;;;18.60;99.90;;;;;;4918263;29;20198;-69
2021/07/22 01:21:52;;;;;;;11.67;10.47;;;18.60;99.90;;;;;;4917170;29;20411;-69
2021/07/22 01:24:17;;;;;;;12.07;10.90;;;18.60;99.90;;;;;;4917636;29;20273;-69
2021/07/22 01:26:43;;;;;;;11.40;10.30;;;18.60;99.90;;;;;;4917468;29;20186;-75
2021/07/22 01:29:10;;;;;;;12.07;10.77;;;18.60;99.90;;;;;;4918210;29;20217;-69
2021/07/22 01:31:35;;;;;;;11.40;10.30;;;18.60;99.90;;;;;;4918002;29;20269;-69
2021/07/22 01:34:01;;;;;;;17.17;11.50;;;18.60;99.90;;;;;;4916926;29;20470;-69
2021/07/22 01:36:27;;;;;;;10.93;9.70;;;18.60;99.90;;;;;;4918063;29;20187;-68
2021/07/22 01:38:53;;;;;;;11.20;10.10;;;18.50;99.90;;;;;;4916851;29;20257;-69
2021/07/22 01:41:19;;;;;;;11.53;10.43;;;18.50;99.90;;;;;;4917824;29;20221;-69
2021/07/22 01:43:45;;;;;;;10.50;9.40;;;18.50;99.90;;;;;;4917109;29;20447;-76
2021/07/22 01:46:11;;;;;;;11.90;10.70;;;18.50;99.90;;;;;;4917447;29;20181;-69
2021/07/22 01:48:36;;;;;;;10.03;9.10;;;18.50;99.90;;;;;;4917145;29;20463;-69
2021/07/22 01:51:05;;;;;;;11.30;10.30;;;18.50;99.90;;;;;;4916467;29;20602;-68
2021/07/22 01:53:31;;;;;;;11.30;10.20;;;18.40;99.90;;;;;;4917494;29;20531;-68
2021/07/22 01:55:56;;;;;;;10.93;9.93;;;18.40;99.90;;;;;;4916872;29;20475;-69
2021/07/22 01:58:22;;;;;;;10.53;9.53;;;18.40;99.90;;;;;;4917508;29;20545;-68
2021/07/22 02:00:48;;;;;;;11.57;10.37;;;18.40;99.90;;;;;;4916673;29;20541;-69
2021/07/22 02:03:13;;;;;;;11.10;10.00;;;18.40;99.90;;;;;;4917128;29;20249;-69
2021/07/22 02:05:39;;;;;;;11.30;10.20;;;18.40;99.90;;;;;;4917673;29;20185;-69
2021/07/22 02:08:05;;;;;;;10.47;9.37;;;18.40;99.90;;;;;;4916294;29;20182;-69
2021/07/22 02:10:30;;;;;;;10.03;9.13;;;18.40;99.90;;;;;;4917223;29;20546;-69
2021/07/22 02:12:56;;;;;;;10.97;9.87;;;18.40;99.90;;;;;;4916365;29;20179;-69
2021/07/22 02:15:21;;;;;;;11.27;10.37;;;18.40;99.90;;;;;;4916924;29;20269;-69
2021/07/22 02:17:47;;;;;;;10.30;9.40;;;18.40;99.90;;;;;;4916476;29;20182;-72
2021/07/22 02:20:13;;;;;;;11.23;9.60;;;18.40;99.90;;;;;;4917196;29;20174;-69
2021/07/22 02:22:38;;;;;;;10.77;9.77;;;18.30;99.90;;;;;;4916934;29;20214;-68
2021/07/22 02:25:05;;;;;;;9.80;8.90;;;18.30;99.90;;;;;;4916065;29;20694;-69
2021/07/22 02:27:35;;;;;;;11.00;9.73;;;18.30;99.90;;;;;;4917052;29;20630;-69
2021/07/22 02:30:02;;;;;;;10.67;9.77;;;18.30;99.90;;;;;;4916223;29;20851;-69
2021/07/22 02:32:28;;;;;;;11.97;10.87;;;18.30;99.90;;;;;;4917074;29;20465;-68
2021/07/22 02:34:54;;;;;;;10.47;9.47;;;18.30;99.90;;;;;;4915893;29;20442;-69
2021/07/22 02:37:19;;;;;;;11.40;10.20;;;18.30;99.90;;;;;;4916583;29;20226;-69
2021/07/22 02:39:45;;;;;;;11.07;9.97;;;18.20;99.90;;;;;;4916283;29;20182;-76
2021/07/22 02:42:11;;;;;;;11.43;10.00;;;18.20;99.90;;;;;;4916259;29;20182;-69
2021/07/22 02:44:39;;;;;;;11.87;9.70;;;18.20;99.90;;;;;;4916686;29;20170;-69
2021/07/22 02:47:09;;;;;;;12.70;11.50;;;18.20;99.90;;;;;;4899038;29;20183;-69
2021/07/22 02:49:35;;;;;;;10.70;9.63;;;18.20;99.90;;;;;;4916452;29;20493;-69
2021/07/22 02:52:00;;;;;;;11.73;10.63;;;18.20;99.90;;;;;;4915896;29;20454;-68
2021/07/22 02:54:26;;;;;;;11.90;10.70;;;18.20;99.90;;;;;;4900008;29;20183;-68
2021/07/22 02:56:52;;;;;;;10.83;9.80;;;18.10;99.90;;;;;;4916315;29;20186;-68
2021/07/22 02:59:17;;;;;;;12.13;10.67;;;18.10;99.90;;;;;;4916530;29;20179;-69
2021/07/22 03:01:43;;;;;;;12.67;11.50;;;18.10;99.90;;;;;;4916388;29;20254;-69
2021/07/22 03:04:08;;;;;;;11.00;10.00;;;18.10;99.90;;;;;;4916212;29;20182;-69
2021/07/22 03:06:34;;;;;;;11.47;10.43;;;18.10;99.90;;;;;;4899854;29;20189;-69
2021/07/22 03:09:00;;;;;;;11.50;10.10;;;18.00;99.90;;;;;;4915867;29;20213;-69
2021/07/22 03:11:26;;;;;;;11.20;9.93;;;18.00;99.90;;;;;;4917024;29;20528;-69
2021/07/22 03:13:51;;;;;;;11.37;10.27;;;18.10;99.90;;;;;;4915935;29;20179;-69
2021/07/22 03:16:17;;;;;;;11.17;10.10;;;18.10;99.90;;;;;;4899770;29;20410;-69
2021/07/22 03:18:43;;;;;;;12.17;10.97;;;18.10;99.90;;;;;;4916611;29;20174;-69
2021/07/22 03:21:08;;;;;;;12.00;10.43;;;18.20;99.90;;;;;;4915997;29;20178;-68
2021/07/22 03:23:34;;;;;;;11.80;10.80;;;18.20;99.90;;;;;;4916192;29;20186;-69
2021/07/22 03:26:00;;;;;;;11.40;10.20;;;18.20;99.90;;;;;;4915371;29;20187;-69
2021/07/22 03:28:26;;;;;;;11.33;10.23;;;18.20;99.90;;;;;;4916071;29;20183;-68
2021/07/22 03:30:51;;;;;;;10.70;9.60;;;18.20;99.90;;;;;;4914941;29;20308;-75
2021/07/22 03:33:17;;;;;;;12.50;11.40;;;18.30;99.90;;;;;;4915901;29;20610;-69
2021/07/22 03:35:43;;;;;;;12.30;10.93;;;18.30;99.90;;;;;;4898659;29;20265;-70
2021/07/22 03:38:09;;;;;;;10.57;9.67;;;18.30;99.90;;;;;;4914998;29;20184;-68
2021/07/22 03:40:35;;;;;;;12.37;11.10;;;18.30;99.90;;;;;;4916019;29;20519;-68
2021/07/22 03:43:00;;;;;;;11.30;10.30;;;18.30;99.90;;;;;;4915282;29;20450;-68
2021/07/22 03:45:26;;;;;;;13.57;12.43;;;18.30;99.90;;;;;;4915925;29;20230;-68
2021/07/22 03:47:52;;;;;;;15.13;11.70;;;18.40;99.90;;;;;;4915098;29;20257;-75
2021/07/22 03:50:17;;;;;;;11.70;10.60;;;18.40;99.90;;;;;;4915650;29;20682;-68
2021/07/22 03:52:43;;;;;;;11.77;10.57;;;18.40;99.90;;;;;;4915671;29;20187;-68
2021/07/22 03:55:10;;;;;;;11.30;10.20;;;18.40;99.90;;;;;;4914652;29;20671;-68
2021/07/22 03:57:35;;;;;;;11.60;10.57;;;18.40;99.90;;;;;;4915817;29;20182;-68
2021/07/22 04:00:01;;;;;;;11.60;10.50;;;18.40;99.90;;;;;;4914204;29;20426;-68
2021/07/22 04:02:27;;;;;;;12.37;10.67;;;18.40;99.90;;;;;;4915830;29;20242;-68
2021/07/22 04:04:52;;;;;;;11.93;10.73;;;18.40;99.90;;;;;;4915202;29;20273;-74
2021/07/22 04:07:18;;;;;;;11.40;9.37;;;18.50;99.90;;;;;;4915842;29;20254;-68
2021/07/22 04:09:45;;;;;;;10.50;9.50;;;18.50;99.90;;;;;;4915334;29;20218;-68
2021/07/22 04:12:10;;;;;;;12.03;10.93;;;18.50;99.90;;;;;;4918587;29;20210;-68
2021/07/22 04:14:36;;;;;;;12.30;11.20;;;18.50;99.90;;;;;;4919436;29;20442;-68
2021/07/22 04:17:02;;;;;;;12.47;11.37;;;18.50;99.90;;;;;;4918879;29;20181;-68
2021/07/22 04:19:27;;;;;;;12.37;11.17;;;18.50;99.90;;;;;;4919334;29;20639;-68
2021/07/22 04:21:53;;;;;;;14.53;13.03;;;18.40;99.90;;;;;;4918354;29;20627;-74
2021/07/22 04:24:19;;;;;;;11.43;10.33;;;18.40;99.90;;;;;;4919369;29;20183;-68
2021/07/22 04:26:44;;;;;;;12.90;11.60;;;18.50;99.90;;;;;;4918731;29;20183;-68
2021/07/22 04:29:10;;;;;;;15.30;13.90;;;18.50;99.90;;;;;;4918312;29;20214;-69
2021/07/22 04:31:36;;;;;;;13.50;12.30;;;18.50;99.90;;;;;;4919035;29;20226;-70
2021/07/22 04:34:01;;;;;;;14.23;13.03;;;18.50;99.90;;;;;;4917941;29;20222;-68
2021/07/22 04:36:30;;;;;;;14.83;13.40;;;18.50;99.90;;;;;;4918457;29;20190;-68
2021/07/22 04:38:55;;;;;;;13.87;12.47;;;18.60;99.90;;;;;;4918241;29;20575;-74
2021/07/22 04:41:21;;;;;;;14.47;13.07;;;18.60;99.90;;;;;;4919025;29;20407;-68
2021/07/22 04:43:47;;;;;;;13.40;12.20;;;18.60;99.90;;;;;;4918987;29;20332;-68
2021/07/22 04:46:14;;;;;;;13.20;11.90;;;18.60;99.90;;;;;;4917827;29;20202;-68
2021/07/22 04:48:40;;;;;;;14.13;11.87;;;18.60;99.90;;;;;;4918761;29;20691;-68
2021/07/22 04:51:06;;;;;;;14.00;11.17;;;18.60;99.90;;;;;;4917915;29;20488;-69
2021/07/22 04:53:35;;;;;;;13.20;11.63;;;18.60;99.90;;;;;;4918807;29;20202;-68
2021/07/22 04:56:01;;;;;;;14.67;13.27;;;18.60;99.90;;;;;;4917777;29;20187;-69
2021/07/22 04:58:27;;;;;;;12.97;11.50;;;18.70;99.90;;;;;;4918315;29;20430;-68
2021/07/22 05:00:53;;;;;;;14.40;13.20;;;18.70;99.90;;;;;;4918209;29;20422;-72
2021/07/22 05:03:19;;;;;;;15.43;13.27;;;18.70;99.90;;;;;;4917861;29;20438;-68
2021/07/22 05:05:45;;;;;;;11.73;10.50;;;18.70;99.90;;;;;;4918061;29;20426;-70
2021/07/22 05:08:11;;;;;;;14.83;13.43;;;18.80;99.90;;;;;;4917657;29;20934;-70
2021/07/22 05:10:36;;;;;;;14.40;11.33;;;18.90;99.90;;;;;;4917125;29;20202;-71
2021/07/22 05:13:06;;;;;;;13.33;10.30;;;19.10;99.90;;;;;;4917310;29;20185;-70
2021/07/22 05:15:32;;;;;;;13.97;11.57;;;19.30;99.90;;;;;;4917864;29;20175;-70
2021/07/22 05:17:58;;;;;;;12.60;10.60;;;19.40;99.90;;;;;;4916690;29;20426;-70
2021/07/22 05:20:24;;;;;;;13.60;11.50;;;19.60;99.90;;;;;;4917348;29;20434;-70
2021/07/22 05:22:49;;;;;;;11.80;10.60;;;19.70;99.90;;;;;;4916866;29;20175;-71
2021/07/22 05:25:15;;;;;;;13.17;11.27;;;19.80;99.90;;;;;;4916391;29;20643;-70
2021/07/22 05:27:41;;;;;;;11.87;9.97;;;19.90;99.90;;;;;;4915975;29;20178;-70
2021/07/22 05:30:07;;;;;;;12.33;10.43;;;20.10;99.90;;;;;;4898510;29;20242;-71
2021/07/22 05:32:33;;;;;;;14.30;10.43;;;20.20;99.50;;;;;;4916840;29;20938;-71
2021/07/22 05:34:59;;;;;;;11.17;9.90;;;20.30;99.30;;;;;;4916843;29;20779;-71
2021/07/22 05:37:25;;;;;;;13.70;12.40;;;20.40;99.10;;;;;;4917252;29;20439;-71
2021/07/22 05:39:51;;;;;;;11.30;10.27;;;20.50;98.60;;;;;;4917825;29;20478;-70
2021/07/22 05:42:17;;;;;;;11.83;9.80;;;20.50;98.30;;;;;;4917621;29;20234;-71
2021/07/22 05:44:42;;;;;;;13.37;12.07;;;20.60;98.30;;;;;;4917965;29;20242;-70
2021/07/22 05:47:08;;;;;;;11.90;10.87;;;20.70;98.40;;;;;;4916664;29;20179;-70
2021/07/22 05:49:34;;;;;;;13.50;11.97;;;20.80;98.50;;;;;;4917245;29;20214;-70
2021/07/22 05:52:00;;;;;;;14.00;11.50;;;20.80;98.30;;;;;;4916608;29;20194;-71
2021/07/22 05:54:26;;;;;;;12.70;11.50;;;20.90;98.20;;;;;;4917436;29;20205;-71
2021/07/22 05:56:52;;;;;;;11.57;10.43;;;21.00;98.10;;;;;;4916098;29;20426;-71
2021/07/22 05:59:17;;;;;;;11.20;10.10;;;21.10;98.10;;;;;;4916935;29;20186;-70
2021/07/22 06:01:43;;;;;;;15.77;12.80;;;21.10;97.80;;;;;;4900985;29;20174;-70
2021/07/22 06:04:09;;;;;;;10.67;9.67;;;21.20;97.50;;;;;;4916836;29;20265;-70
2021/07/22 06:06:36;;;;;;;14.30;12.73;;;21.20;97.30;;;;;;4917188;29;20322;-70
2021/07/22 06:09:03;;;;;;;12.70;10.67;;;21.30;97.30;;;;;;4916975;29;20222;-69
2021/07/22 06:11:29;;;;;;;11.73;10.47;;;21.40;99.20;;;;;;4900308;29;20411;-69
2021/07/22 06:13:55;;;;;;;11.90;10.77;;;21.30;96.80;;;;;;4917136;29;20434;-83
2021/07/22 06:16:21;;;;;;;13.47;11.90;;;21.20;96.30;;;;;;4917578;29;20929;-71
2021/07/22 06:18:46;;;;;;;15.23;12.67;;;21.10;96.50;;;;;;4917188;29;20422;-72
2021/07/22 06:21:14;;;;;;;13.90;10.77;;;21.00;96.90;;;;;;4916933;29;20174;-72
2021/07/22 06:23:40;;;;;;;13.47;12.07;;;20.90;97.40;;;;;;4917620;29;20217;-71
2021/07/22 06:26:06;;;;;;;12.10;11.00;;;20.80;98.00;;;;;;4916827;29;20414;-70
2021/07/22 06:28:31;;;;;;;13.73;10.60;;;20.70;98.50;;;;;;4917313;29;20824;-70
2021/07/22 06:30:57;;;;;;;12.40;11.20;;;20.70;98.90;;;;;;4916382;29;20222;-71
2021/07/22 06:33:23;;;;;;;12.87;11.67;;;20.80;98.80;;;;;;4916640;29;20268;-70
2021/07/22 06:35:50;;;;;;;13.00;11.80;;;20.90;98.60;;;;;;4917107;29;20213;-70
2021/07/22 06:38:16;;;;;;;16.00;12.43;;;21.00;98.70;;;;;;4903178;29;21183;-70
2021/07/22 06:40:43;;;;;;;13.00;11.70;;;21.00;98.80;;;;;;4902553;29;20438;-70
2021/07/22 06:43:10;;;;;;;11.70;10.60;;;21.10;98.50;;;;;;4915084;29;20226;-71
2021/07/22 06:45:38;;;;;;;10.40;9.37;;;21.20;98.50;;;;;;4919041;29;20418;-70
2021/07/22 06:48:05;;;;;;;13.30;10.60;;;21.30;98.10;;;;;;4916236;29;20414;-71
2021/07/22 06:50:31;;;;;;;12.67;11.43;;;21.40;98.10;;;;;;4916790;29;20805;-70
2021/07/22 06:52:57;;;;;;;12.20;10.73;;;21.50;98.10;;;;;;4916872;29;20414;-70
2021/07/22 06:55:23;;;;;;;15.80;12.00;;;21.60;98.30;;;;;;4900607;29;20413;-70
2021/07/22 06:57:48;;;;;;;11.27;10.27;;;21.60;98.40;;;;;;4916555;29;20457;-70
2021/07/22 07:00:14;;;;;;;13.47;12.00;;;21.70;97.90;;;;;;4916305;29;20273;-70
2021/07/22 07:02:41;;;;;;;13.17;11.97;;;21.70;97.60;;;;;;4916930;29;20178;-70
2021/07/22 07:05:07;;;;;;;12.87;11.73;;;21.80;97.30;;;;;;4916050;29;20414;-70
2021/07/22 07:07:33;;;;;;;13.67;12.57;;;21.80;97.40;;;;;;4916568;29;20414;-70
2021/07/22 07:09:59;;;;;;;13.57;12.27;;;21.80;97.60;;;;;;4917507;29;20458;-75
2021/07/22 07:12:25;;;;;;;12.67;11.47;;;21.90;98.00;;;;;;4915627;29;20178;-70
2021/07/22 07:14:50;;;;;;;12.70;11.40;;;21.90;97.90;;;;;;4916692;29;20438;-70
2021/07/22 07:17:16;;;;;;;14.63;13.37;;;21.90;97.70;;;;;;4916044;29;20178;-70
2021/07/22 07:19:42;;;;;;;13.37;12.30;;;21.90;97.60;;;;;;4915830;29;20182;-71
2021/07/22 07:22:08;;;;;;;13.43;12.40;;;21.90;97.80;;;;;;4915245;29;20178;-70
2021/07/22 07:24:33;;;;;;;12.13;11.13;;;22.00;97.90;;;;;;4916436;29;20226;-70
2021/07/22 07:26:59;;;;;;;13.20;11.30;;;22.00;97.70;;;;;;4916178;29;20239;-76
2021/07/22 07:29:25;;;;;;;12.57;11.00;;;22.00;97.60;;;;;;4916501;29;20605;-70
2021/07/22 07:31:51;;;;;;;12.10;11.07;;;22.00;97.60;;;;;;4916083;29;20461;-69
2021/07/22 07:34:17;;;;;;;14.93;11.20;;;22.10;97.60;;;;;;4916134;29;20193;-69
2021/07/22 07:36:45;;;;;;;13.97;12.47;;;22.10;97.50;;;;;;4916033;29;20422;-69
2021/07/22 07:39:13;;;;;;;13.53;12.20;;;22.10;97.90;;;;;;4915249;29;20186;-69
2021/07/22 07:41:38;;;;;;;12.90;11.70;;;22.10;97.90;;;;;;4915505;29;20418;-69
2021/07/22 07:44:04;;;;;;;12.90;11.70;;;22.10;98.10;;;;;;4915111;29;20853;-70
2021/07/22 07:46:30;;;;;;;12.60;11.40;;;22.20;98.00;;;;;;4919035;29;20186;-70
2021/07/22 07:48:55;;;;;;;13.70;12.03;;;22.20;98.00;;;;;;4920165;29;20296;-69
2021/07/22 07:51:21;;;;;;;13.03;11.70;;;22.20;97.90;;;;;;4902435;29;20216;-69
2021/07/22 07:53:47;;;;;;;13.00;11.70;;;22.20;98.00;;;;;;4920225;29;20627;-70
2021/07/22 07:56:12;;;;;;;13.40;11.30;;;22.20;98.30;;;;;;4921227;29;20272;-72
2021/07/22 07:58:38;;;;;;;12.40;11.10;;;22.20;97.60;;;;;;4919482;29;20186;-69
2021/07/22 08:01:03;;;;;;;12.13;10.73;;;22.30;98.00;;;;;;4919199;29;20210;-70
2021/07/22 08:03:29;;;;;;;12.47;10.90;;;22.30;98.10;;;;;;4920358;29;20174;-70
2021/07/22 08:05:55;;;;;;;13.93;12.50;;;22.30;98.40;;;;;;4919781;29;20171;-70
2021/07/22 08:08:22;;;;;;;13.77;11.03;;;22.30;98.20;;;;;;4918833;29;20213;-69
2021/07/22 08:10:47;;;;;;;16.10;10.97;;;22.40;97.90;;;;;;4902871;29;20289;-69
2021/07/22 08:13:13;;;;;;;12.00;10.77;;;22.40;98.30;;;;;;4919515;29;20938;-70
2021/07/22 08:15:43;;;;;;;17.50;11.63;;;22.40;98.10;;;;;;4919640;29;20179;-70
2021/07/22 08:18:09;;;;;;;14.93;13.03;;;22.50;97.70;;;;;;4919193;29;20190;-70
2021/07/22 08:20:35;;;;;;;13.30;11.90;;;22.60;97.90;;;;;;4919681;29;20450;-70
2021/07/22 08:23:01;;;;;;;12.67;11.43;;;22.50;97.10;;;;;;4919433;29;20461;-70
2021/07/22 08:25:27;;;;;;;12.40;11.00;;;22.60;97.20;;;;;;4919034;29;20411;-70
2021/07/22 08:27:53;;;;;;;18.00;11.37;;;22.60;96.80;;;;;;4927770;29;20188;-70
2021/07/22 08:30:18;;;;;;;11.30;10.20;;;22.70;97.30;;;;;;4918688;29;20651;-70
2021/07/22 08:32:44;;;;;;;13.70;12.30;;;22.70;97.20;;;;;;4921565;29;20233;-70
2021/07/22 08:35:10;;;;;;;12.33;10.97;;;22.80;97.30;;;;;;4918847;29;20190;-70
2021/07/22 08:37:36;;;;;;;12.57;11.37;;;22.90;96.80;;;;;;4919375;29;20266;-70
2021/07/22 08:40:04;;;;;;;13.33;11.00;;;22.90;96.70;;;;;;4919078;29;20781;-70
2021/07/22 08:42:37;;;;;;;15.47;11.37;;;23.00;96.90;;;;;;4919351;29;20201;-70
2021/07/22 08:45:04;;;;;;;11.17;10.07;;;23.10;96.80;;;;;;4918545;29;20418;-69
2021/07/22 08:47:30;;;;;;;12.97;11.67;;;23.20;96.60;;;;;;4919201;29;20469;-69
2021/07/22 08:49:56;;;;;;;11.93;10.90;;;23.20;96.20;;;;;;4918933;29;20458;-70
2021/07/22 08:52:22;;;;;;;10.70;9.60;;;23.30;96.20;;;;;;4918341;29;20418;-70
2021/07/22 08:54:48;;;;;;;12.33;11.17;;;23.40;95.90;;;;;;4921730;29;20429;-70
2021/07/22 08:57:17;;;;;;;11.80;10.70;;;23.40;94.90;;;;;;4917464;29;20697;-70
2021/07/22 08:59:43;;;;;;;12.33;11.03;;;23.50;95.40;;;;;;4918770;29;20174;-70
2021/07/22 09:02:15;;;;;;;11.30;10.20;;;23.50;95.70;;;;;;4918246;29;20414;-70
2021/07/22 09:04:57;;;;;;;15.27;13.90;;;23.60;96.00;;;;;;4917724;29;20924;-70
2021/07/22 09:07:23;;;;;;;11.97;9.93;;;23.60;96.10;;;;;;4917209;29;20911;-69
2021/07/22 09:10:05;;;;;;;12.10;10.50;;;23.60;96.20;;;;;;4918298;29;20473;-70
2021/07/22 09:12:43;;;;;;;10.90;9.90;;;23.60;95.60;;;;;;4917396;29;20452;-70
2021/07/22 09:15:30;;;;;;;12.77;9.73;;;23.70;95.70;;;;;;4917442;29;20425;-78
2021/07/22 09:17:56;;;;;;;10.33;9.23;;;23.80;96.30;;;;;;4918625;29;20478;-70
2021/07/22 09:20:40;;;;;;;10.30;9.40;;;23.80;95.80;;;;;;4918021;29;20411;-70
2021/07/22 09:23:06;;;;;;;13.43;12.03;;;23.80;95.60;;;;;;4918377;29;20521;-70
2021/07/22 09:25:43;;;;;;;13.40;12.10;;;23.80;93.10;;;;;;4918481;29;20414;-70
2021/07/22 09:28:20;;;;;;;11.80;10.57;;;23.90;93.20;;;;;;4901039;29;20438;-70
2021/07/22 09:30:59;;;;;;;16.70;14.90;;;23.90;94.10;;;;;;4918232;29;20470;-70
2021/07/22 09:33:42;;;;;;;13.70;12.27;;;24.00;92.80;;;;;;4918078;29;20509;-70
2021/07/22 09:36:28;;;;;;;15.93;10.97;;;24.10;93.60;;;;;;4917878;29;20791;-71
2021/07/22 09:38:54;;;;;;;15.07;10.57;;;24.10;93.30;;;;;;4917965;29;20407;-70
2021/07/22 09:41:21;;;;;;;13.50;12.10;;;24.20;92.40;;;;;;4917660;29;20460;-70
2021/07/22 09:43:47;;;;;;;14.50;12.83;;;24.30;92.30;;;;;;4918263;29;20410;-70
2021/07/22 09:46:16;;;;;;;14.33;12.90;;;24.30;88.20;;;;;;4917407;29;20763;-70
2021/07/22 09:49:07;;;;;;;15.47;14.00;;;24.30;87.40;;;;;;4917035;29;20513;-70
2021/07/22 09:51:32;;;;;;;15.83;14.27;;;24.30;90.20;;;;;;4914198;29;20939;-70
2021/07/22 09:54:09;;;;;;;16.47;14.70;;;24.30;89.80;;;;;;4917858;29;20429;-70
2021/07/22 09:56:36;;;;;;;13.90;12.50;;;24.30;88.30;;;;;;4917009;29;20258;-71
2021/07/22 09:59:02;;;;;;;14.57;12.60;;;24.30;90.20;;;;;;4901085;29;20421;-70
2021/07/22 10:01:29;;;;;;;14.00;12.67;;;24.40;91.20;;;;;;4916876;29;20415;-70
2021/07/22 10:03:56;;;;;;;13.93;12.53;;;24.50;91.80;;;;;;4917930;29;20414;-70
2021/07/22 10:06:24;;;;;;;12.50;11.40;;;24.50;90.80;;;;;;4917019;29;20502;-70
2021/07/22 10:08:49;;;;;;;13.57;12.17;;;24.50;91.20;;;;;;4916836;29;20910;-70
2021/07/22 10:11:16;;;;;;;13.10;11.77;;;24.50;91.20;;;;;;4917020;29;20442;-71
2021/07/22 10:13:44;;;;;;;13.57;12.17;;;24.60;90.50;;;;;;4921000;29;20174;-70
2021/07/22 10:16:12;;;;;;;12.17;11.07;;;24.80;91.40;;;;;;4916587;29;20840;-81
2021/07/22 10:18:45;;;;;;;11.60;10.50;;;24.90;91.90;;;;;;4915984;29;20458;-70
2021/07/22 10:21:12;;;;;;;12.67;11.47;;;25.10;91.30;;;;;;4916376;29;20423;-78
2021/07/22 10:23:42;;;;;;;12.73;11.63;;;25.20;90.80;;;;;;4916538;29;20986;-70
2021/07/22 10:26:08;;;;;;;13.33;12.13;;;25.40;90.90;;;;;;4912389;29;20531;-70
2021/07/22 10:28:34;;;;;;;12.07;10.93;;;25.60;91.00;;;;;;4915674;29;20427;-70
2021/07/22 10:31:05;;;;;;;13.50;12.10;;;25.80;91.50;;;;;;4916720;29;20905;-70
2021/07/22 10:33:34;;;;;;;13.83;12.43;;;26.00;90.90;;;;;;4915724;29;20411;-70
2021/07/22 10:36:00;;;;;;;14.13;12.60;;;26.20;87.90;;;;;;4916804;29;20423;-70
2021/07/22 10:38:43;;;;;;;13.53;12.23;;;26.20;86.70;;;;;;4915924;29;20426;-71
2021/07/22 10:41:09;;;;;;;14.97;11.97;;;26.30;82.30;;;;;;4917269;29;20462;-70
2021/07/22 10:43:43;;;;;;;13.03;11.70;;;26.40;84.20;;;;;;4916579;29;20425;-70
2021/07/22 10:46:14;;;;;;;12.20;10.97;;;26.70;86.60;;;;;;4917193;29;20426;-69
2021/07/22 10:48:41;;;;;;;12.30;11.20;;;26.70;84.00;;;;;;4916830;29;20418;-70
2021/07/22 10:51:09;;;;;;;12.03;11.03;;;26.60;84.70;;;;;;4917020;29;20492;-70
2021/07/22 10:53:42;;;;;;;12.27;11.17;;;26.50;87.00;;;;;;4916432;29;20918;-70
2021/07/22 10:56:38;;;;;;;11.93;10.93;;;26.40;87.10;;;;;;4916547;29;20422;-70
2021/07/22 10:59:04;;;;;;;12.30;11.20;;;26.30;86.70;;;;;;4916741;29;20442;-70
2021/07/22 11:01:42;;;;;;;12.80;11.60;;;26.30;88.40;;;;;;4916295;29;20407;-70
2021/07/22 11:04:22;;;;;;;12.80;11.60;;;26.40;89.70;;;;;;4916777;29;20572;-70
2021/07/22 11:07:01;;;;;;;13.70;12.27;;;26.60;87.40;;;;;;4916291;29;20414;-70
2021/07/22 11:09:46;;;;;;;15.47;13.87;;;26.80;88.70;;;;;;4916072;29;20466;-70
2021/07/22 11:12:38;;;;;;;12.90;11.80;;;26.80;89.20;;;;;;4916719;29;20772;-70
2021/07/22 11:15:11;;;;;;;13.97;12.87;;;26.80;87.10;;;;;;4916605;29;20429;-70
2021/07/22 11:17:37;;;;;;;16.10;14.60;;;26.90;85.70;;;;;;4915935;29;20391;-70
2021/07/22 11:20:21;;;;;;;11.83;10.83;;;27.00;85.00;;;;;;4916306;29;20477;-70
2021/07/22 11:22:49;;;;;;;12.40;11.13;;;27.20;84.20;;;;;;4916329;29;20835;-70
2021/07/22 11:25:16;;;;;;;12.53;11.53;;;27.40;83.10;;;;;;4915736;29;20422;-70
2021/07/22 11:27:48;;;;;;;14.13;12.70;;;27.50;82.90;;;;;;4916532;29;20803;-70
2021/07/22 11:30:16;;;;;;;14.80;13.40;;;27.70;81.70;;;;;;4915983;29;20534;-77
2021/07/22 11:32:43;;;;;;;13.57;12.37;;;27.80;81.40;;;;;;4916653;29;20469;-70
2021/07/22 11:35:09;;;;;;;13.07;11.97;;;27.80;78.50;;;;;;4916246;29;20843;-70
2021/07/22 11:37:35;;;;;;;13.73;12.53;;;27.70;81.70;;;;;;4915793;29;20419;-70
2021/07/22 11:40:11;;;;;;;16.80;15.17;;;27.80;81.80;;;;;;4899469;29;20462;-70
2021/07/22 11:42:50;;;;;;;12.93;11.63;;;27.90;80.60;;;;;;4917968;29;20492;-70
2021/07/22 11:45:16;;;;;;;13.23;12.03;;;27.90;78.40;;;;;;4915699;29;20414;-70
2021/07/22 11:47:42;;;;;;;13.63;12.43;;;27.80;78.70;;;;;;4915941;29;20551;-73
2021/07/22 11:50:09;;;;;;;13.80;12.50;;;27.70;80.20;;;;;;4915742;29;20461;-70
2021/07/22 11:52:35;;;;;;;14.20;12.90;;;27.50;78.60;;;;;;4915260;29;20752;-70
2021/07/22 11:55:12;;;;;;;13.40;12.30;;;27.40;79.80;;;;;;4918331;29;20482;-70
2021/07/22 11:57:42;;;;;;;13.43;12.23;;;27.40;79.40;;;;;;4914456;29;20525;-69
2021/07/22 12:00:15;;;;;;;14.70;13.53;;;27.30;80.00;;;;;;4915918;29;20475;-70
2021/07/22 12:02:46;;;;;;;14.90;13.33;;;27.30;80.10;;;;;;4915093;29;20422;-69
2021/07/22 12:05:21;;;;;;;14.20;12.87;;;27.40;81.40;;;;;;4915705;29;20774;-70
2021/07/22 12:07:47;;;;;;;13.50;12.37;;;27.60;78.90;;;;;;4915777;29;20890;-70
2021/07/22 12:10:13;;;;;;;14.20;13.00;;;27.70;81.60;;;;;;4915372;29;20509;-70
2021/07/22 12:12:38;;;;;;;14.77;13.57;;;27.80;79.20;;;;;;4914963;29;20927;-69
2021/07/22 12:15:08;;;;;;;13.60;12.40;;;27.90;79.40;;;;;;4915138;29;20186;-69
2021/07/22 12:17:36;;;;;;;14.50;13.00;;;27.90;77.00;;;;;;4913935;29;20175;-69
2021/07/22 12:20:04;;;;;;;13.43;12.30;;;27.90;79.50;;;;;;4915074;29;20462;-70
2021/07/22 12:22:40;;;;;;;13.70;12.53;;;27.80;77.90;;;;;;4913932;29;20427;-69
2021/07/22 12:25:06;;;;;;;13.57;12.37;;;27.60;78.60;;;;;;4916004;29;20402;-69
2021/07/22 12:27:31;;;;;;;13.70;12.50;;;27.50;77.80;;;;;;4915689;29;20474;-69
2021/07/22 12:29:59;;;;;;;15.97;14.17;;;27.40;78.00;;;;;;4915736;29;20218;-69